Date,TemperatureHighF,TemperatureAvgF,TemperatureLowF,DewpointHighF,DewpointAvgF,DewpointLowF,HumidityHigh,HumidityAvg,HumidityLow,PressureMaxIn,PressureMinIn,WindSpeedMaxMPH,WindSpeedAvgMPH,GustSpeedMaxMPH,PrecipitationSumIn
2013-2-1,66.7,49.8,35.2,45.4,37.9,28.5,82,65,45,30.19,30.09,14,3,14,0.00
2013-2-2,59.9,50.1,41.9,47.0,41.7,35.6,82,73,62,30.29,30.19,14,4,14,0.00
2013-2-3,59.7,48.8,40.6,45.8,40.1,34.6,80,72,59,30.23,30.13,10,3,10,0.00
2013-2-4,55.9,47.5,41.4,46.1,40.8,35.4,83,77,69,30.15,30.06,14,4,14,0.00
2013-2-5,57.7,50.1,44.2,45.6,41.3,37.5,77,72,63,30.14,30.03,21,7,21,0.00
2013-2-6,58.6,48.1,36.7,42.7,37.9,29.8,81,68,47,30.17,30.10,17,5,17,0.00
2013-2-7,55.4,47.6,39.2,42.6,37.1,32.3,80,68,44,30.15,29.99,16,5,16,0.08
2013-2-8,56.5,46.3,36.9,39.1,35.1,30.3,82,66,45,30.01,29.92,16,6,16,0.00
2013-2-9,60.8,49.9,36.1,37.0,31.0,26.2,72,50,30,30.07,29.98,14,4,14,0.00
2013-2-10,62.2,45.2,31.5,43.7,32.8,23.7,75,63,39,30.10,30.00,12,3,12,0.00
2013-2-11,67.8,52.1,35.1,43.3,35.2,27.6,79,56,25,30.21,30.06,17,4,17,0.00
2013-2-12,62.4,47.5,37.4,47.2,40.1,33.9,88,77,43,30.36,30.22,10,3,10,0.00
2013-2-13,64.8,51.0,38.8,46.9,41.6,35.6,88,72,45,30.32,30.19,12,4,12,0.00
2013-2-14,70.5,51.5,37.8,49.7,41.3,34.5,88,70,42,30.23,30.14,8,2,8,0.00
2013-2-15,70.9,53.1,37.8,46.1,40.0,32.8,84,64,36,30.25,30.19,13,3,13,0.00
2013-2-16,70.9,54.6,39.9,49.6,42.4,34.9,82,66,40,30.22,30.03,12,3,12,0.00
2013-2-17,63.7,48.5,36.5,45.7,39.0,31.2,86,71,50,30.04,29.96,11,3,11,0.00
2013-2-18,56.7,45.1,35.6,42.8,36.7,29.4,85,73,58,30.02,29.92,19,6,19,0.00
2013-2-19,51.1,45.0,37.4,41.0,35.9,30.2,82,71,52,29.94,29.71,24,7,24,0.14
2013-2-20,58.8,43.2,34.7,38.7,31.9,27.1,76,65,46,29.98,29.85,15,7,15,0.00
2013-2-21,60.8,48.9,39.7,40.4,36.4,32.1,76,63,37,30.16,30.02,14,6,14,0.00
2013-2-22,64.2,48.8,35.6,43.7,37.9,28.5,81,67,34,30.24,30.15,15,5,15,0.00
2013-2-23,59.7,52.2,43.3,43.4,37.3,29.8,81,58,33,30.25,30.15,22,9,22,0.00
2013-2-24,65.8,50.7,41.0,37.6,33.3,28.9,74,54,26,30.25,30.14,15,5,15,0.00
2013-2-25,66.0,48.7,36.5,45.9,37.5,29.5,82,67,44,30.25,30.15,14,4,14,0.00
2013-2-26,67.8,48.5,33.6,39.4,34.9,26.7,79,62,29,30.21,30.13,17,4,17,0.00
2013-2-27,68.7,53.2,36.1,43.3,38.4,29.2,82,60,28,30.35,30.20,13,4,13,0.00
2013-2-28,65.8,55.0,47.7,51.2,45.5,41.3,80,71,59,30.43,30.34,14,4,14,0.00